sensor_id;sensor_type;location;lat;lon;timestamp;temperature;humidity
43581;DHT22;29175;51.030;4.606;2023-02-15T00:00:23;4.20;99.90
43581;DHT22;29175;51.030;4.606;2023-02-15T00:02:48;4.10;99.90
43581;DHT22;29175;51.030;4.606;2023-02-15T00:05:14;4.00;99.90
43581;DHT22;29175;51.030;4.606;2023-02-15T00:07:40;4.10;99.90
43581;DHT22;29175;51.030;4.606;2023-02-15T00:10:07;4.20;99.90
43581;DHT22;29175;51.030;4.606;2023-02-15T00:12:33;4.20;99.90
43581;DHT22;29175;51.030;4.606;2023-02-15T00:14:59;4.20;99.90
43581;DHT22;29175;51.030;4.606;2023-02-15T00:17:27;4.10;99.90
43581;DHT22;29175;51.030;4.606;2023-02-15T00:19:53;4.10;99.90
43581;DHT22;29175;51.030;4.606;2023-02-15T00:22:20;4.10;99.90
43581;DHT22;29175;51.030;4.606;2023-02-15T00:24:45;4.10;99.90
43581;DHT22;29175;51.030;4.606;2023-02-15T00:27:11;4.20;99.90
43581;DHT22;29175;51.030;4.606;2023-02-15T00:29:37;4.10;99.90
43581;DHT22;29175;51.030;4.606;2023-02-15T00:32:04;4.20;99.90
43581;DHT22;29175;51.030;4.606;2023-02-15T00:34:30;4.10;99.90
43581;DHT22;29175;51.030;4.606;2023-02-15T00:36:56;4.10;99.90
43581;DHT22;29175;51.030;4.606;2023-02-15T00:39:22;4.00;99.90
43581;DHT22;29175;51.030;4.606;2023-02-15T00:41:49;4.00;99.90
43581;DHT22;29175;51.030;4.606;2023-02-15T00:44:15;3.90;99.90
43581;DHT22;29175;51.030;4.606;2023-02-15T00:46:41;3.90;99.90
43581;DHT22;29175;51.030;4.606;2023-02-15T00:49:07;3.80;99.90
43581;DHT22;29175;51.030;4.606;2023-02-15T00:51:33;3.70;99.90
43581;DHT22;29175;51.030;4.606;2023-02-15T00:53:59;3.80;99.90
43581;DHT22;29175;51.030;4.606;2023-02-15T00:56:25;3.60;99.90
43581;DHT22;29175;51.030;4.606;2023-02-15T00:58:50;3.60;99.90
43581;DHT22;29175;51.030;4.606;2023-02-15T01:01:18;3.60;99.90
43581;DHT22;29175;51.030;4.606;2023-02-15T01:03:45;3.50;99.90
43581;DHT22;29175;51.030;4.606;2023-02-15T01:06:12;3.50;99.90
43581;DHT22;29175;51.030;4.606;2023-02-15T01:08:38;3.40;99.90
43581;DHT22;29175;51.030;4.606;2023-02-15T01:11:10;3.30;99.90
43581;DHT22;29175;51.030;4.606;2023-02-15T01:13:36;3.20;99.90
43581;DHT22;29175;51.030;4.606;2023-02-15T01:16:03;3.10;99.90
43581;DHT22;29175;51.030;4.606;2023-02-15T01:18:29;3.00;99.90
43581;DHT22;29175;51.030;4.606;2023-02-15T01:20:55;3.00;99.90
43581;DHT22;29175;51.030;4.606;2023-02-15T01:23:21;3.00;99.90
43581;DHT22;29175;51.030;4.606;2023-02-15T01:25:47;3.20;99.90
43581;DHT22;29175;51.030;4.606;2023-02-15T01:28:13;3.30;99.90
43581;DHT22;29175;51.030;4.606;2023-02-15T01:30:39;3.30;99.90
43581;DHT22;29175;51.030;4.606;2023-02-15T01:33:05;3.40;99.90
43581;DHT22;29175;51.030;4.606;2023-02-15T01:35:31;3.30;99.90
43581;DHT22;29175;51.030;4.606;2023-02-15T01:37:57;3.30;99.90
43581;DHT22;29175;51.030;4.606;2023-02-15T01:40:24;3.20;99.90
43581;DHT22;29175;51.030;4.606;2023-02-15T01:42:54;3.20;99.90
43581;DHT22;29175;51.030;4.606;2023-02-15T01:45:24;3.00;99.90
43581;DHT22;29175;51.030;4.606;2023-02-15T01:50:36;3.10;99.90
43581;DHT22;29175;51.030;4.606;2023-02-15T01:53:14;3.10;99.90
43581;DHT22;29175;51.030;4.606;2023-02-15T01:56:05;3.20;99.90
43581;DHT22;29175;51.030;4.606;2023-02-15T01:58:34;3.10;99.90
43581;DHT22;29175;51.030;4.606;2023-02-15T02:01:01;3.10;99.90
43581;DHT22;29175;51.030;4.606;2023-02-15T02:06:17;3.10;99.90
43581;DHT22;29175;51.030;4.606;2023-02-15T02:08:44;3.10;99.90
43581;DHT22;29175;51.030;4.606;2023-02-15T02:11:14;3.10;99.90
43581;DHT22;29175;51.030;4.606;2023-02-15T02:13:41;3.00;99.90
43581;DHT22;29175;51.030;4.606;2023-02-15T02:19:23;3.10;99.90
43581;DHT22;29175;51.030;4.606;2023-02-15T02:25:17;3.00;99.90
43581;DHT22;29175;51.030;4.606;2023-02-15T02:27:54;2.90;99.90
43581;DHT22;29175;51.030;4.606;2023-02-15T02:30:49;2.60;99.90
43581;DHT22;29175;51.030;4.606;2023-02-15T02:42:13;2.50;99.90
43581;DHT22;29175;51.030;4.606;2023-02-15T02:45:59;2.50;99.90
43581;DHT22;29175;51.030;4.606;2023-02-15T02:47:56;2.50;99.90
43581;DHT22;29175;51.030;4.606;2023-02-15T02:50:27;2.60;99.90
43581;DHT22;29175;51.030;4.606;2023-02-15T02:52:55;2.70;99.90
43581;DHT22;29175;51.030;4.606;2023-02-15T02:58:28;2.80;99.90
43581;DHT22;29175;51.030;4.606;2023-02-15T03:03:27;2.70;99.90
43581;DHT22;29175;51.030;4.606;2023-02-15T03:06:00;2.70;99.90
43581;DHT22;29175;51.030;4.606;2023-02-15T03:08:41;2.70;99.90
43581;DHT22;29175;51.030;4.606;2023-02-15T03:11:08;2.70;99.90
43581;DHT22;29175;51.030;4.606;2023-02-15T03:13:35;2.70;99.90
43581;DHT22;29175;51.030;4.606;2023-02-15T03:16:01;2.80;99.90
43581;DHT22;29175;51.030;4.606;2023-02-15T03:18:51;2.80;99.90
43581;DHT22;29175;51.030;4.606;2023-02-15T03:21:45;2.80;99.90
43581;DHT22;29175;51.030;4.606;2023-02-15T03:24:26;2.70;99.90
43581;DHT22;29175;51.030;4.606;2023-02-15T03:26:54;2.70;99.90
43581;DHT22;29175;51.030;4.606;2023-02-15T03:29:24;2.70;99.90
43581;DHT22;29175;51.030;4.606;2023-02-15T03:31:58;2.60;99.90
43581;DHT22;29175;51.030;4.606;2023-02-15T03:34:25;2.70;99.90
43581;DHT22;29175;51.030;4.606;2023-02-15T03:39:32;2.50;99.90
43581;DHT22;29175;51.030;4.606;2023-02-15T03:42:25;2.60;99.90
43581;DHT22;29175;51.030;4.606;2023-02-15T03:45:00;2.60;99.90
43581;DHT22;29175;51.030;4.606;2023-02-15T03:47:31;2.60;99.90
43581;DHT22;29175;51.030;4.606;2023-02-15T03:50:12;2.60;99.90
43581;DHT22;29175;51.030;4.606;2023-02-15T03:52:58;2.50;99.90
43581;DHT22;29175;51.030;4.606;2023-02-15T03:55:27;2.50;99.90
43581;DHT22;29175;51.030;4.606;2023-02-15T03:57:53;2.40;99.90
43581;DHT22;29175;51.030;4.606;2023-02-15T04:00:42;2.50;99.90
43581;DHT22;29175;51.030;4.606;2023-02-15T04:03:43;2.50;99.90
43581;DHT22;29175;51.030;4.606;2023-02-15T04:06:10;2.60;99.90
43581;DHT22;29175;51.030;4.606;2023-02-15T04:08:36;2.50;99.90
43581;DHT22;29175;51.030;4.606;2023-02-15T04:11:20;2.40;99.90
43581;DHT22;29175;51.030;4.606;2023-02-15T04:13:46;2.30;99.90
43581;DHT22;29175;51.030;4.606;2023-02-15T04:16:12;2.30;99.90
43581;DHT22;29175;51.030;4.606;2023-02-15T04:18:42;2.30;99.90
43581;DHT22;29175;51.030;4.606;2023-02-15T04:21:28;2.30;99.90
43581;DHT22;29175;51.030;4.606;2023-02-15T04:24:13;2.20;99.90
43581;DHT22;29175;51.030;4.606;2023-02-15T04:26:58;2.00;99.90
43581;DHT22;29175;51.030;4.606;2023-02-15T04:29:25;2.10;99.90
43581;DHT22;29175;51.030;4.606;2023-02-15T04:31:52;2.10;99.90
43581;DHT22;29175;51.030;4.606;2023-02-15T04:34:18;2.20;99.90
43581;DHT22;29175;51.030;4.606;2023-02-15T04:36:44;2.20;99.90
43581;DHT22;29175;51.030;4.606;2023-02-15T04:39:13;2.10;99.90
43581;DHT22;29175;51.030;4.606;2023-02-15T04:41:39;2.20;99.90
43581;DHT22;29175;51.030;4.606;2023-02-15T04:44:05;2.30;99.90
43581;DHT22;29175;51.030;4.606;2023-02-15T04:46:30;2.30;99.90
43581;DHT22;29175;51.030;4.606;2023-02-15T04:48:57;2.30;99.90
43581;DHT22;29175;51.030;4.606;2023-02-15T04:51:23;2.30;99.90
43581;DHT22;29175;51.030;4.606;2023-02-15T04:53:49;2.30;99.90
43581;DHT22;29175;51.030;4.606;2023-02-15T04:56:15;2.40;99.90
43581;DHT22;29175;51.030;4.606;2023-02-15T04:58:41;2.40;99.90
43581;DHT22;29175;51.030;4.606;2023-02-15T05:01:08;2.30;99.90
43581;DHT22;29175;51.030;4.606;2023-02-15T05:03:34;2.30;99.90
43581;DHT22;29175;51.030;4.606;2023-02-15T05:05:59;2.20;99.90
43581;DHT22;29175;51.030;4.606;2023-02-15T05:08:25;2.20;99.90
43581;DHT22;29175;51.030;4.606;2023-02-15T05:10:51;2.20;99.90
43581;DHT22;29175;51.030;4.606;2023-02-15T05:13:17;2.20;99.90
43581;DHT22;29175;51.030;4.606;2023-02-15T05:15:53;2.10;99.90
43581;DHT22;29175;51.030;4.606;2023-02-15T05:18:20;2.00;99.90
43581;DHT22;29175;51.030;4.606;2023-02-15T05:20:46;1.90;99.90
43581;DHT22;29175;51.030;4.606;2023-02-15T05:23:13;1.80;99.90
43581;DHT22;29175;51.030;4.606;2023-02-15T05:25:38;1.80;99.90
43581;DHT22;29175;51.030;4.606;2023-02-15T05:28:24;1.80;99.90
43581;DHT22;29175;51.030;4.606;2023-02-15T05:33:25;2.00;99.90
43581;DHT22;29175;51.030;4.606;2023-02-15T05:35:51;2.10;99.90
43581;DHT22;29175;51.030;4.606;2023-02-15T05:38:16;2.10;99.90
43581;DHT22;29175;51.030;4.606;2023-02-15T05:40:42;2.00;99.90
43581;DHT22;29175;51.030;4.606;2023-02-15T05:43:08;2.00;99.90
43581;DHT22;29175;51.030;4.606;2023-02-15T05:45:34;2.10;99.90
43581;DHT22;29175;51.030;4.606;2023-02-15T05:48:00;2.10;99.90
43581;DHT22;29175;51.030;4.606;2023-02-15T05:50:29;1.90;99.90
43581;DHT22;29175;51.030;4.606;2023-02-15T05:52:54;1.90;99.90
43581;DHT22;29175;51.030;4.606;2023-02-15T05:55:20;2.00;99.90
43581;DHT22;29175;51.030;4.606;2023-02-15T05:57:46;2.10;99.90
43581;DHT22;29175;51.030;4.606;2023-02-15T06:00:14;2.10;99.90
43581;DHT22;29175;51.030;4.606;2023-02-15T06:02:40;2.10;99.90
43581;DHT22;29175;51.030;4.606;2023-02-15T06:05:07;2.00;99.90
43581;DHT22;29175;51.030;4.606;2023-02-15T06:07:33;2.00;99.90
43581;DHT22;29175;51.030;4.606;2023-02-15T06:09:59;2.00;99.90
43581;DHT22;29175;51.030;4.606;2023-02-15T06:12:25;2.00;99.90
43581;DHT22;29175;51.030;4.606;2023-02-15T06:14:51;1.90;99.90
43581;DHT22;29175;51.030;4.606;2023-02-15T06:17:17;1.90;99.90
43581;DHT22;29175;51.030;4.606;2023-02-15T06:19:43;1.90;99.90
43581;DHT22;29175;51.030;4.606;2023-02-15T06:22:09;1.80;99.90
43581;DHT22;29175;51.030;4.606;2023-02-15T06:24:34;1.80;99.90
43581;DHT22;29175;51.030;4.606;2023-02-15T06:27:00;1.90;99.90
43581;DHT22;29175;51.030;4.606;2023-02-15T06:29:26;1.80;99.90
43581;DHT22;29175;51.030;4.606;2023-02-15T06:31:52;1.80;99.90
43581;DHT22;29175;51.030;4.606;2023-02-15T06:34:18;1.70;99.90
43581;DHT22;29175;51.030;4.606;2023-02-15T06:36:43;1.70;99.90
43581;DHT22;29175;51.030;4.606;2023-02-15T06:39:09;1.60;99.90
43581;DHT22;29175;51.030;4.606;2023-02-15T06:41:35;1.60;99.90
43581;DHT22;29175;51.030;4.606;2023-02-15T06:44:01;1.60;99.90
43581;DHT22;29175;51.030;4.606;2023-02-15T06:46:27;1.60;99.90
43581;DHT22;29175;51.030;4.606;2023-02-15T06:48:53;1.70;99.90
43581;DHT22;29175;51.030;4.606;2023-02-15T06:51:19;1.70;99.90
43581;DHT22;29175;51.030;4.606;2023-02-15T06:53:45;1.80;99.90
43581;DHT22;29175;51.030;4.606;2023-02-15T06:56:11;1.80;99.90
43581;DHT22;29175;51.030;4.606;2023-02-15T06:58:39;1.80;99.90
43581;DHT22;29175;51.030;4.606;2023-02-15T07:01:05;1.80;99.90
43581;DHT22;29175;51.030;4.606;2023-02-15T07:03:32;1.90;99.90
43581;DHT22;29175;51.030;4.606;2023-02-15T07:05:59;1.80;99.90
43581;DHT22;29175;51.030;4.606;2023-02-15T07:08:27;1.70;99.90
43581;DHT22;29175;51.030;4.606;2023-02-15T07:10:54;1.70;99.90
43581;DHT22;29175;51.030;4.606;2023-02-15T07:13:20;1.90;99.90
43581;DHT22;29175;51.030;4.606;2023-02-15T07:15:47;1.90;99.90
43581;DHT22;29175;51.030;4.606;2023-02-15T07:18:14;1.90;99.90
43581;DHT22;29175;51.030;4.606;2023-02-15T07:20:40;2.00;99.90
43581;DHT22;29175;51.030;4.606;2023-02-15T07:23:07;2.00;99.90
43581;DHT22;29175;51.030;4.606;2023-02-15T07:25:34;2.20;99.90
43581;DHT22;29175;51.030;4.606;2023-02-15T07:28:02;2.30;99.90
43581;DHT22;29175;51.030;4.606;2023-02-15T07:30:29;2.30;99.90
43581;DHT22;29175;51.030;4.606;2023-02-15T07:32:56;2.40;99.90
43581;DHT22;29175;51.030;4.606;2023-02-15T07:35:48;2.40;99.90
43581;DHT22;29175;51.030;4.606;2023-02-15T07:38:16;2.50;99.90
43581;DHT22;29175;51.030;4.606;2023-02-15T07:40:42;2.50;99.90
43581;DHT22;29175;51.030;4.606;2023-02-15T07:43:09;2.70;99.90
43581;DHT22;29175;51.030;4.606;2023-02-15T07:45:35;2.70;99.90
43581;DHT22;29175;51.030;4.606;2023-02-15T07:48:02;2.80;99.90
43581;DHT22;29175;51.030;4.606;2023-02-15T07:50:28;3.00;99.90
43581;DHT22;29175;51.030;4.606;2023-02-15T07:52:54;3.20;99.90
43581;DHT22;29175;51.030;4.606;2023-02-15T07:55:19;3.40;99.90
43581;DHT22;29175;51.030;4.606;2023-02-15T07:57:46;3.60;99.90
43581;DHT22;29175;51.030;4.606;2023-02-15T08:00:14;3.70;99.90
43581;DHT22;29175;51.030;4.606;2023-02-15T08:02:41;3.80;99.90
43581;DHT22;29175;51.030;4.606;2023-02-15T08:05:08;3.90;99.90
43581;DHT22;29175;51.030;4.606;2023-02-15T08:07:33;3.90;99.90
43581;DHT22;29175;51.030;4.606;2023-02-15T08:09:59;4.00;99.90
43581;DHT22;29175;51.030;4.606;2023-02-15T08:12:28;4.10;99.90
43581;DHT22;29175;51.030;4.606;2023-02-15T08:14:54;4.20;99.90
43581;DHT22;29175;51.030;4.606;2023-02-15T08:17:20;4.10;99.90
43581;DHT22;29175;51.030;4.606;2023-02-15T08:19:46;4.30;99.90
43581;DHT22;29175;51.030;4.606;2023-02-15T08:22:13;4.40;99.90
43581;DHT22;29175;51.030;4.606;2023-02-15T08:24:40;4.50;99.90
43581;DHT22;29175;51.030;4.606;2023-02-15T08:27:08;4.80;99.90
43581;DHT22;29175;51.030;4.606;2023-02-15T08:29:36;5.00;99.90
43581;DHT22;29175;51.030;4.606;2023-02-15T08:32:07;5.20;99.90
43581;DHT22;29175;51.030;4.606;2023-02-15T08:34:37;5.50;99.90
43581;DHT22;29175;51.030;4.606;2023-02-15T08:37:03;5.60;99.90
43581;DHT22;29175;51.030;4.606;2023-02-15T08:39:29;5.80;99.90
43581;DHT22;29175;51.030;4.606;2023-02-15T08:41:55;5.90;99.90
43581;DHT22;29175;51.030;4.606;2023-02-15T08:44:21;6.30;99.90
43581;DHT22;29175;51.030;4.606;2023-02-15T08:46:48;6.40;99.90
43581;DHT22;29175;51.030;4.606;2023-02-15T08:49:20;6.40;99.90
43581;DHT22;29175;51.030;4.606;2023-02-15T08:51:47;6.60;99.90
43581;DHT22;29175;51.030;4.606;2023-02-15T08:54:16;6.70;99.90
43581;DHT22;29175;51.030;4.606;2023-02-15T08:56:43;6.80;99.90
43581;DHT22;29175;51.030;4.606;2023-02-15T08:59:15;7.00;99.90
43581;DHT22;29175;51.030;4.606;2023-02-15T09:01:41;7.30;99.90
43581;DHT22;29175;51.030;4.606;2023-02-15T09:04:08;7.70;99.90
43581;DHT22;29175;51.030;4.606;2023-02-15T09:06:39;7.90;99.90
43581;DHT22;29175;51.030;4.606;2023-02-15T09:09:06;8.10;99.90
43581;DHT22;29175;51.030;4.606;2023-02-15T09:11:37;8.30;99.90
43581;DHT22;29175;51.030;4.606;2023-02-15T09:14:19;8.60;99.90
43581;DHT22;29175;51.030;4.606;2023-02-15T09:16:47;8.90;99.90
43581;DHT22;29175;51.030;4.606;2023-02-15T09:19:15;9.10;99.90
43581;DHT22;29175;51.030;4.606;2023-02-15T09:21:41;9.50;99.90
43581;DHT22;29175;51.030;4.606;2023-02-15T09:24:10;9.90;99.90
43581;DHT22;29175;51.030;4.606;2023-02-15T09:26:39;10.40;99.90
43581;DHT22;29175;51.030;4.606;2023-02-15T09:29:06;10.70;99.90
43581;DHT22;29175;51.030;4.606;2023-02-15T09:31:37;10.90;99.90
43581;DHT22;29175;51.030;4.606;2023-02-15T09:34:03;11.30;99.90
43581;DHT22;29175;51.030;4.606;2023-02-15T09:36:32;11.40;99.90
43581;DHT22;29175;51.030;4.606;2023-02-15T09:39:11;11.80;99.90
43581;DHT22;29175;51.030;4.606;2023-02-15T09:47:06;12.00;99.90
43581;DHT22;29175;51.030;4.606;2023-02-15T09:52:40;11.90;99.90
43581;DHT22;29175;51.030;4.606;2023-02-15T10:20:03;15.80;98.20
43581;DHT22;29175;51.030;4.606;2023-02-15T10:25:28;16.10;97.00
43581;DHT22;29175;51.030;4.606;2023-02-15T10:28:02;16.00;96.90
43581;DHT22;29175;51.030;4.606;2023-02-15T10:31:17;16.10;97.60
43581;DHT22;29175;51.030;4.606;2023-02-15T10:33:50;16.70;96.70
43581;DHT22;29175;51.030;4.606;2023-02-15T10:44:43;17.30;95.40
43581;DHT22;29175;51.030;4.606;2023-02-15T10:50:51;17.70;94.90
43581;DHT22;29175;51.030;4.606;2023-02-15T11:01:39;17.80;95.50
43581;DHT22;29175;51.030;4.606;2023-02-15T11:06:54;17.40;95.50
43581;DHT22;29175;51.030;4.606;2023-02-15T11:09:21;17.20;95.40
43581;DHT22;29175;51.030;4.606;2023-02-15T11:11:53;17.40;95.70
43581;DHT22;29175;51.030;4.606;2023-02-15T11:17:16;17.60;95.20
43581;DHT22;29175;51.030;4.606;2023-02-15T11:20:02;17.70;95.10
43581;DHT22;29175;51.030;4.606;2023-02-15T11:22:32;17.70;94.30
43581;DHT22;29175;51.030;4.606;2023-02-15T11:25:00;17.50;94.60
43581;DHT22;29175;51.030;4.606;2023-02-15T11:27:30;17.40;94.80
43581;DHT22;29175;51.030;4.606;2023-02-15T11:30:12;17.00;95.10
43581;DHT22;29175;51.030;4.606;2023-02-15T11:32:40;16.40;94.40
43581;DHT22;29175;51.030;4.606;2023-02-15T11:35:17;16.00;95.70
43581;DHT22;29175;51.030;4.606;2023-02-15T11:37:50;16.00;96.30
43581;DHT22;29175;51.030;4.606;2023-02-15T11:40:36;15.80;96.00
43581;DHT22;29175;51.030;4.606;2023-02-15T11:45:56;15.40;95.80
43581;DHT22;29175;51.030;4.606;2023-02-15T11:48:22;15.60;96.50
43581;DHT22;29175;51.030;4.606;2023-02-15T11:50:48;15.80;95.90
43581;DHT22;29175;51.030;4.606;2023-02-15T11:53:22;16.00;96.20
43581;DHT22;29175;51.030;4.606;2023-02-15T11:55:52;16.10;96.50
43581;DHT22;29175;51.030;4.606;2023-02-15T11:58:37;16.40;94.90
43581;DHT22;29175;51.030;4.606;2023-02-15T12:01:13;16.70;95.30
43581;DHT22;29175;51.030;4.606;2023-02-15T12:03:52;16.80;95.10
43581;DHT22;29175;51.030;4.606;2023-02-15T12:06:22;17.00;95.40
43581;DHT22;29175;51.030;4.606;2023-02-15T12:11:40;16.90;94.00
43581;DHT22;29175;51.030;4.606;2023-02-15T12:14:08;16.60;95.60
43581;DHT22;29175;51.030;4.606;2023-02-15T12:16:53;16.30;95.90
43581;DHT22;29175;51.030;4.606;2023-02-15T12:19:38;16.30;95.30
43581;DHT22;29175;51.030;4.606;2023-02-15T12:22:25;16.10;95.20
43581;DHT22;29175;51.030;4.606;2023-02-15T12:24:55;15.80;95.80
43581;DHT22;29175;51.030;4.606;2023-02-15T12:27:31;16.00;96.30
43581;DHT22;29175;51.030;4.606;2023-02-15T12:30:04;16.50;96.50
43581;DHT22;29175;51.030;4.606;2023-02-15T12:32:53;16.80;95.30
43581;DHT22;29175;51.030;4.606;2023-02-15T12:35:31;16.40;95.00
43581;DHT22;29175;51.030;4.606;2023-02-15T12:38:25;16.10;95.60
43581;DHT22;29175;51.030;4.606;2023-02-15T12:41:00;15.60;95.90
43581;DHT22;29175;51.030;4.606;2023-02-15T12:43:33;15.20;96.50
43581;DHT22;29175;51.030;4.606;2023-02-15T12:46:23;15.00;96.80
43581;DHT22;29175;51.030;4.606;2023-02-15T12:49:18;14.90;97.00
43581;DHT22;29175;51.030;4.606;2023-02-15T12:52:02;14.90;97.40
43581;DHT22;29175;51.030;4.606;2023-02-15T12:54:42;15.10;97.50
43581;DHT22;29175;51.030;4.606;2023-02-15T12:57:27;14.90;96.90
43581;DHT22;29175;51.030;4.606;2023-02-15T13:00:04;15.20;97.50
43581;DHT22;29175;51.030;4.606;2023-02-15T13:02:47;15.40;97.10
43581;DHT22;29175;51.030;4.606;2023-02-15T13:05:31;15.50;97.20
43581;DHT22;29175;51.030;4.606;2023-02-15T13:08:03;15.00;97.20
43581;DHT22;29175;51.030;4.606;2023-02-15T13:10:37;15.10;97.80
43581;DHT22;29175;51.030;4.606;2023-02-15T13:13:16;15.50;97.60
43581;DHT22;29175;51.030;4.606;2023-02-15T13:15:46;15.30;97.00
43581;DHT22;29175;51.030;4.606;2023-02-15T13:18:33;15.30;97.10
43581;DHT22;29175;51.030;4.606;2023-02-15T13:21:20;15.10;97.80
43581;DHT22;29175;51.030;4.606;2023-02-15T13:23:53;14.80;97.50
43581;DHT22;29175;51.030;4.606;2023-02-15T13:26:23;14.80;98.00
43581;DHT22;29175;51.030;4.606;2023-02-15T13:28:57;15.10;98.50
43581;DHT22;29175;51.030;4.606;2023-02-15T13:31:27;14.90;97.30
43581;DHT22;29175;51.030;4.606;2023-02-15T13:33:58;14.80;98.20
43581;DHT22;29175;51.030;4.606;2023-02-15T13:36:30;15.10;97.60
43581;DHT22;29175;51.030;4.606;2023-02-15T13:39:09;14.70;97.60
43581;DHT22;29175;51.030;4.606;2023-02-15T13:44:21;15.00;97.90
43581;DHT22;29175;51.030;4.606;2023-02-15T13:52:23;14.90;98.50
43581;DHT22;29175;51.030;4.606;2023-02-15T14:09:24;14.90;98.80
43581;DHT22;29175;51.030;4.606;2023-02-15T14:12:21;15.20;98.50
43581;DHT22;29175;51.030;4.606;2023-02-15T14:31:49;15.10;98.70
43581;DHT22;29175;51.030;4.606;2023-02-15T14:34:30;15.00;99.00
43581;DHT22;29175;51.030;4.606;2023-02-15T14:36:59;15.00;97.80
43581;DHT22;29175;51.030;4.606;2023-02-15T14:39:47;14.80;97.90
43581;DHT22;29175;51.030;4.606;2023-02-15T14:42:56;14.60;98.10
43581;DHT22;29175;51.030;4.606;2023-02-15T14:45:40;14.40;98.90
43581;DHT22;29175;51.030;4.606;2023-02-15T14:48:31;14.40;99.30
43581;DHT22;29175;51.030;4.606;2023-02-15T14:50:57;14.50;99.00
43581;DHT22;29175;51.030;4.606;2023-02-15T14:53:25;14.60;98.70
43581;DHT22;29175;51.030;4.606;2023-02-15T14:58:56;14.40;99.50
43581;DHT22;29175;51.030;4.606;2023-02-15T15:01:32;14.40;99.60
43581;DHT22;29175;51.030;4.606;2023-02-15T15:04:13;14.40;99.10
43581;DHT22;29175;51.030;4.606;2023-02-15T15:09:30;14.30;99.50
43581;DHT22;29175;51.030;4.606;2023-02-15T15:12:15;14.30;99.50
43581;DHT22;29175;51.030;4.606;2023-02-15T15:14:59;14.30;99.60
43581;DHT22;29175;51.030;4.606;2023-02-15T15:20:13;14.10;99.80
43581;DHT22;29175;51.030;4.606;2023-02-15T15:22:42;14.10;99.90
43581;DHT22;29175;51.030;4.606;2023-02-15T15:27:55;14.00;99.80
43581;DHT22;29175;51.030;4.606;2023-02-15T15:32:59;13.70;99.90
43581;DHT22;29175;51.030;4.606;2023-02-15T15:49:28;13.60;99.90
43581;DHT22;29175;51.030;4.606;2023-02-15T15:52:00;13.30;99.90
43581;DHT22;29175;51.030;4.606;2023-02-15T15:54:27;13.30;99.90
43581;DHT22;29175;51.030;4.606;2023-02-15T15:56:57;13.70;99.90
43581;DHT22;29175;51.030;4.606;2023-02-15T15:59:29;13.60;99.90
43581;DHT22;29175;51.030;4.606;2023-02-15T16:01:56;13.30;99.90
43581;DHT22;29175;51.030;4.606;2023-02-15T16:04:31;13.40;99.90
43581;DHT22;29175;51.030;4.606;2023-02-15T16:06:58;13.30;99.90
43581;DHT22;29175;51.030;4.606;2023-02-15T16:09:38;13.10;99.90
43581;DHT22;29175;51.030;4.606;2023-02-15T16:12:04;13.20;99.90
43581;DHT22;29175;51.030;4.606;2023-02-15T16:14:40;13.10;99.90
43581;DHT22;29175;51.030;4.606;2023-02-15T16:17:17;13.10;99.90
43581;DHT22;29175;51.030;4.606;2023-02-15T16:19:44;13.20;99.90
43581;DHT22;29175;51.030;4.606;2023-02-15T16:22:16;13.20;99.90
43581;DHT22;29175;51.030;4.606;2023-02-15T16:25:20;13.00;99.90
43581;DHT22;29175;51.030;4.606;2023-02-15T16:27:51;12.80;99.90
43581;DHT22;29175;51.030;4.606;2023-02-15T16:32:52;12.50;99.90
43581;DHT22;29175;51.030;4.606;2023-02-15T16:35:20;12.50;99.90
43581;DHT22;29175;51.030;4.606;2023-02-15T16:37:47;12.40;99.90
43581;DHT22;29175;51.030;4.606;2023-02-15T16:40:36;12.30;99.90
43581;DHT22;29175;51.030;4.606;2023-02-15T16:43:06;12.30;99.90
43581;DHT22;29175;51.030;4.606;2023-02-15T16:45:33;12.10;99.90
43581;DHT22;29175;51.030;4.606;2023-02-15T16:48:06;12.00;99.90
43581;DHT22;29175;51.030;4.606;2023-02-15T16:50:36;12.00;99.90
43581;DHT22;29175;51.030;4.606;2023-02-15T16:53:05;12.00;99.90
43581;DHT22;29175;51.030;4.606;2023-02-15T16:55:37;11.90;99.90
43581;DHT22;29175;51.030;4.606;2023-02-15T16:58:05;11.70;99.90
43581;DHT22;29175;51.030;4.606;2023-02-15T17:00:35;11.40;99.90
43581;DHT22;29175;51.030;4.606;2023-02-15T17:03:05;11.30;99.90
43581;DHT22;29175;51.030;4.606;2023-02-15T17:05:47;11.40;99.90
43581;DHT22;29175;51.030;4.606;2023-02-15T17:08:29;11.50;99.90
43581;DHT22;29175;51.030;4.606;2023-02-15T17:13:25;10.90;99.90
43581;DHT22;29175;51.030;4.606;2023-02-15T17:18:34;10.60;99.90
43581;DHT22;29175;51.030;4.606;2023-02-15T17:21:13;10.10;99.90
43581;DHT22;29175;51.030;4.606;2023-02-15T17:23:44;10.10;99.90
43581;DHT22;29175;51.030;4.606;2023-02-15T17:26:17;10.30;99.90
43581;DHT22;29175;51.030;4.606;2023-02-15T17:31:18;10.20;99.90
43581;DHT22;29175;51.030;4.606;2023-02-15T17:33:45;10.20;99.90
43581;DHT22;29175;51.030;4.606;2023-02-15T17:36:20;10.20;99.90
43581;DHT22;29175;51.030;4.606;2023-02-15T17:41:29;10.20;99.90
43581;DHT22;29175;51.030;4.606;2023-02-15T17:43:55;10.20;99.90
43581;DHT22;29175;51.030;4.606;2023-02-15T17:46:21;10.20;99.90
43581;DHT22;29175;51.030;4.606;2023-02-15T17:48:49;10.20;99.90
43581;DHT22;29175;51.030;4.606;2023-02-15T17:51:16;10.20;99.90
43581;DHT22;29175;51.030;4.606;2023-02-15T17:53:43;10.10;99.90
43581;DHT22;29175;51.030;4.606;2023-02-15T17:56:29;10.00;99.90
43581;DHT22;29175;51.030;4.606;2023-02-15T17:58:54;9.90;99.90
43581;DHT22;29175;51.030;4.606;2023-02-15T18:01:21;9.90;99.90
43581;DHT22;29175;51.030;4.606;2023-02-15T18:04:10;9.90;99.90
43581;DHT22;29175;51.030;4.606;2023-02-15T18:06:55;9.60;99.90
43581;DHT22;29175;51.030;4.606;2023-02-15T18:09:39;9.30;99.90
43581;DHT22;29175;51.030;4.606;2023-02-15T18:12:26;9.40;99.90
43581;DHT22;29175;51.030;4.606;2023-02-15T18:14:53;9.50;99.90
43581;DHT22;29175;51.030;4.606;2023-02-15T18:17:23;9.50;99.90
43581;DHT22;29175;51.030;4.606;2023-02-15T18:19:50;9.60;99.90
43581;DHT22;29175;51.030;4.606;2023-02-15T18:22:17;9.60;99.90
43581;DHT22;29175;51.030;4.606;2023-02-15T18:24:44;9.40;99.90
43581;DHT22;29175;51.030;4.606;2023-02-15T18:27:12;9.40;99.90
43581;DHT22;29175;51.030;4.606;2023-02-15T18:29:38;9.40;99.90
43581;DHT22;29175;51.030;4.606;2023-02-15T18:32:07;9.40;99.90
43581;DHT22;29175;51.030;4.606;2023-02-15T18:34:38;9.50;99.90
43581;DHT22;29175;51.030;4.606;2023-02-15T18:37:11;9.50;99.90
43581;DHT22;29175;51.030;4.606;2023-02-15T18:39:39;9.50;99.90
43581;DHT22;29175;51.030;4.606;2023-02-15T18:42:09;9.40;99.90
43581;DHT22;29175;51.030;4.606;2023-02-15T18:44:39;9.50;99.90
43581;DHT22;29175;51.030;4.606;2023-02-15T18:47:05;9.50;99.90
43581;DHT22;29175;51.030;4.606;2023-02-15T18:49:30;9.40;99.90
43581;DHT22;29175;51.030;4.606;2023-02-15T18:51:56;9.30;99.90
43581;DHT22;29175;51.030;4.606;2023-02-15T18:54:23;9.20;99.90
43581;DHT22;29175;51.030;4.606;2023-02-15T18:56:56;9.30;99.90
43581;DHT22;29175;51.030;4.606;2023-02-15T18:59:24;9.30;99.90
43581;DHT22;29175;51.030;4.606;2023-02-15T19:01:50;9.10;99.90
43581;DHT22;29175;51.030;4.606;2023-02-15T19:04:16;9.20;99.90